sensor_id;sensor_type;location;lat;lon;timestamp;P1;durP1;ratioP1;P2;durP2;ratioP2
75935;SDS011;64614;32.062;34.834;2023-03-01T00:01:12;10.65;;;6.45;;
75935;SDS011;64614;32.062;34.834;2023-03-01T00:03:41;12.68;;;6.82;;
75935;SDS011;64614;32.062;34.834;2023-03-01T00:06:07;11.18;;;6.63;;
75935;SDS011;64614;32.062;34.834;2023-03-01T00:08:33;10.50;;;6.68;;
75935;SDS011;64614;32.062;34.834;2023-03-01T00:11:01;11.40;;;7.07;;
75935;SDS011;64614;32.062;34.834;2023-03-01T00:13:33;9.65;;;6.30;;
75935;SDS011;64614;32.062;34.834;2023-03-01T00:16:02;12.35;;;6.82;;
75935;SDS011;64614;32.062;34.834;2023-03-01T00:18:32;11.15;;;7.05;;
75935;SDS011;64614;32.062;34.834;2023-03-01T00:20:57;11.23;;;6.60;;
75935;SDS011;64614;32.062;34.834;2023-03-01T00:23:23;10.93;;;6.32;;
75935;SDS011;64614;32.062;34.834;2023-03-01T00:25:50;10.73;;;6.47;;
75935;SDS011;64614;32.062;34.834;2023-03-01T00:28:17;10.40;;;6.53;;
75935;SDS011;64614;32.062;34.834;2023-03-01T00:30:44;10.07;;;6.57;;
75935;SDS011;64614;32.062;34.834;2023-03-01T00:33:09;13.00;;;7.30;;
75935;SDS011;64614;32.062;34.834;2023-03-01T00:35:35;10.35;;;6.38;;
75935;SDS011;64614;32.062;34.834;2023-03-01T00:38:02;10.20;;;6.25;;
75935;SDS011;64614;32.062;34.834;2023-03-01T00:40:30;9.63;;;6.53;;
75935;SDS011;64614;32.062;34.834;2023-03-01T00:42:58;12.68;;;6.55;;
75935;SDS011;64614;32.062;34.834;2023-03-01T00:45:24;9.73;;;6.03;;
75935;SDS011;64614;32.062;34.834;2023-03-01T00:47:51;11.13;;;6.38;;
75935;SDS011;64614;32.062;34.834;2023-03-01T00:50:19;10.70;;;6.00;;
75935;SDS011;64614;32.062;34.834;2023-03-01T00:52:45;11.63;;;6.50;;
75935;SDS011;64614;32.062;34.834;2023-03-01T00:55:12;9.82;;;6.03;;
75935;SDS011;64614;32.062;34.834;2023-03-01T00:57:38;9.40;;;6.05;;
75935;SDS011;64614;32.062;34.834;2023-03-01T01:00:05;10.80;;;6.68;;
75935;SDS011;64614;32.062;34.834;2023-03-01T01:02:32;10.02;;;6.32;;
75935;SDS011;64614;32.062;34.834;2023-03-01T01:05:00;10.02;;;6.15;;
75935;SDS011;64614;32.062;34.834;2023-03-01T01:07:26;10.05;;;6.43;;
75935;SDS011;64614;32.062;34.834;2023-03-01T01:12:20;11.15;;;6.80;;
75935;SDS011;64614;32.062;34.834;2023-03-01T01:14:47;11.50;;;6.07;;
75935;SDS011;64614;32.062;34.834;2023-03-01T01:17:13;10.63;;;6.60;;
75935;SDS011;64614;32.062;34.834;2023-03-01T01:19:39;10.60;;;6.30;;
75935;SDS011;64614;32.062;34.834;2023-03-01T01:22:06;10.70;;;6.22;;
75935;SDS011;64614;32.062;34.834;2023-03-01T01:24:32;10.88;;;6.43;;
75935;SDS011;64614;32.062;34.834;2023-03-01T01:26:58;11.10;;;7.35;;
75935;SDS011;64614;32.062;34.834;2023-03-01T01:29:23;9.38;;;5.95;;
75935;SDS011;64614;32.062;34.834;2023-03-01T01:31:49;10.50;;;6.13;;
75935;SDS011;64614;32.062;34.834;2023-03-01T01:34:16;10.02;;;6.22;;
75935;SDS011;64614;32.062;34.834;2023-03-01T01:36:46;10.50;;;6.30;;
75935;SDS011;64614;32.062;34.834;2023-03-01T01:39:21;10.07;;;5.70;;
75935;SDS011;64614;32.062;34.834;2023-03-01T01:41:47;9.15;;;6.32;;
75935;SDS011;64614;32.062;34.834;2023-03-01T01:44:20;10.20;;;6.35;;
75935;SDS011;64614;32.062;34.834;2023-03-01T01:46:55;9.85;;;5.70;;
75935;SDS011;64614;32.062;34.834;2023-03-01T01:49:33;10.13;;;6.10;;
75935;SDS011;64614;32.062;34.834;2023-03-01T01:52:12;10.35;;;6.40;;
75935;SDS011;64614;32.062;34.834;2023-03-01T01:57:25;10.25;;;5.90;;
75935;SDS011;64614;32.062;34.834;2023-03-01T01:59:59;9.60;;;5.80;;
75935;SDS011;64614;32.062;34.834;2023-03-01T02:02:29;10.05;;;6.03;;
75935;SDS011;64614;32.062;34.834;2023-03-01T02:05:01;11.85;;;6.35;;
75935;SDS011;64614;32.062;34.834;2023-03-01T02:07:35;10.82;;;6.80;;
75935;SDS011;64614;32.062;34.834;2023-03-01T02:10:04;9.93;;;6.30;;
75935;SDS011;64614;32.062;34.834;2023-03-01T02:12:29;8.43;;;6.00;;
75935;SDS011;64614;32.062;34.834;2023-03-01T02:14:56;9.68;;;6.10;;
75935;SDS011;64614;32.062;34.834;2023-03-01T02:17:21;9.10;;;5.97;;
75935;SDS011;64614;32.062;34.834;2023-03-01T02:22:37;9.48;;;5.95;;
75935;SDS011;64614;32.062;34.834;2023-03-01T02:25:24;9.52;;;6.13;;
75935;SDS011;64614;32.062;34.834;2023-03-01T02:30:37;9.93;;;6.35;;
75935;SDS011;64614;32.062;34.834;2023-03-01T02:33:22;10.88;;;6.25;;
75935;SDS011;64614;32.062;34.834;2023-03-01T02:35:50;9.27;;;5.63;;
75935;SDS011;64614;32.062;34.834;2023-03-01T02:40:48;9.27;;;6.05;;
75935;SDS011;64614;32.062;34.834;2023-03-01T02:43:16;9.40;;;5.97;;
75935;SDS011;64614;32.062;34.834;2023-03-01T02:45:49;9.35;;;6.18;;
75935;SDS011;64614;32.062;34.834;2023-03-01T02:48:17;10.32;;;6.35;;
75935;SDS011;64614;32.062;34.834;2023-03-01T02:53:45;10.27;;;6.00;;
75935;SDS011;64614;32.062;34.834;2023-03-01T02:56:34;11.15;;;6.72;;
75935;SDS011;64614;32.062;34.834;2023-03-01T02:59:00;8.52;;;5.70;;
75935;SDS011;64614;32.062;34.834;2023-03-01T03:01:28;9.95;;;6.10;;
75935;SDS011;64614;32.062;34.834;2023-03-01T03:04:02;10.57;;;5.55;;
75935;SDS011;64614;32.062;34.834;2023-03-01T03:06:29;11.82;;;6.07;;
75935;SDS011;64614;32.062;34.834;2023-03-01T03:08:54;11.63;;;6.35;;
75935;SDS011;64614;32.062;34.834;2023-03-01T03:11:20;11.70;;;6.30;;
75935;SDS011;64614;32.062;34.834;2023-03-01T03:13:46;11.48;;;6.25;;
75935;SDS011;64614;32.062;34.834;2023-03-01T03:16:13;10.90;;;6.35;;
75935;SDS011;64614;32.062;34.834;2023-03-01T03:21:08;9.25;;;6.03;;
75935;SDS011;64614;32.062;34.834;2023-03-01T03:23:35;10.77;;;6.25;;
75935;SDS011;64614;32.062;34.834;2023-03-01T03:26:02;11.73;;;6.25;;
75935;SDS011;64614;32.062;34.834;2023-03-01T03:31:02;10.48;;;6.22;;
75935;SDS011;64614;32.062;34.834;2023-03-01T03:36:03;11.25;;;6.32;;
75935;SDS011;64614;32.062;34.834;2023-03-01T03:41:06;9.65;;;5.85;;
75935;SDS011;64614;32.062;34.834;2023-03-01T03:43:34;9.80;;;6.00;;
75935;SDS011;64614;32.062;34.834;2023-03-01T03:46:02;11.23;;;6.53;;
75935;SDS011;64614;32.062;34.834;2023-03-01T03:48:33;9.65;;;6.30;;
75935;SDS011;64614;32.062;34.834;2023-03-01T03:53:30;9.85;;;5.93;;
75935;SDS011;64614;32.062;34.834;2023-03-01T03:58:31;9.25;;;5.85;;
75935;SDS011;64614;32.062;34.834;2023-03-01T04:03:33;10.25;;;5.82;;
75935;SDS011;64614;32.062;34.834;2023-03-01T04:06:00;8.52;;;5.53;;
75935;SDS011;64614;32.062;34.834;2023-03-01T04:08:27;10.15;;;5.60;;
75935;SDS011;64614;32.062;34.834;2023-03-01T04:11:00;9.30;;;5.93;;
75935;SDS011;64614;32.062;34.834;2023-03-01T04:16:11;10.18;;;6.00;;
75935;SDS011;64614;32.062;34.834;2023-03-01T04:21:09;9.18;;;5.78;;
75935;SDS011;64614;32.062;34.834;2023-03-01T04:23:36;9.68;;;5.53;;
75935;SDS011;64614;32.062;34.834;2023-03-01T04:26:02;8.48;;;5.82;;
75935;SDS011;64614;32.062;34.834;2023-03-01T04:33:42;10.38;;;5.85;;
75935;SDS011;64614;32.062;34.834;2023-03-01T04:36:14;12.35;;;6.32;;
75935;SDS011;64614;32.062;34.834;2023-03-01T04:38:42;10.48;;;6.30;;
75935;SDS011;64614;32.062;34.834;2023-03-01T04:49:22;10.38;;;5.75;;
75935;SDS011;64614;32.062;34.834;2023-03-01T04:51:48;12.95;;;6.57;;
75935;SDS011;64614;32.062;34.834;2023-03-01T04:54:14;12.20;;;6.70;;
75935;SDS011;64614;32.062;34.834;2023-03-01T04:59:16;13.93;;;6.88;;
75935;SDS011;64614;32.062;34.834;2023-03-01T05:01:42;15.90;;;8.00;;
75935;SDS011;64614;32.062;34.834;2023-03-01T05:09:18;15.85;;;7.35;;
75935;SDS011;64614;32.062;34.834;2023-03-01T05:14:19;17.15;;;8.90;;
75935;SDS011;64614;32.062;34.834;2023-03-01T05:16:45;15.18;;;8.18;;
75935;SDS011;64614;32.062;34.834;2023-03-01T05:19:11;19.10;;;9.27;;
75935;SDS011;64614;32.062;34.834;2023-03-01T05:21:41;19.10;;;9.20;;
75935;SDS011;64614;32.062;34.834;2023-03-01T05:24:26;19.25;;;9.20;;
75935;SDS011;64614;32.062;34.834;2023-03-01T05:26:52;20.38;;;9.65;;
75935;SDS011;64614;32.062;34.834;2023-03-01T05:29:18;17.38;;;9.27;;
75935;SDS011;64614;32.062;34.834;2023-03-01T05:31:56;19.40;;;9.32;;
75935;SDS011;64614;32.062;34.834;2023-03-01T05:34:33;19.05;;;9.55;;
75935;SDS011;64614;32.062;34.834;2023-03-01T05:37:05;18.83;;;9.40;;
75935;SDS011;64614;32.062;34.834;2023-03-01T05:39:33;19.27;;;9.07;;
75935;SDS011;64614;32.062;34.834;2023-03-01T05:41:59;18.40;;;9.23;;
75935;SDS011;64614;32.062;34.834;2023-03-01T05:44:29;19.55;;;10.15;;
75935;SDS011;64614;32.062;34.834;2023-03-01T05:47:01;16.63;;;9.20;;
75935;SDS011;64614;32.062;34.834;2023-03-01T05:57:53;16.90;;;9.25;;
75935;SDS011;64614;32.062;34.834;2023-03-01T06:00:20;19.92;;;9.43;;
75935;SDS011;64614;32.062;34.834;2023-03-01T06:02:47;17.52;;;9.30;;
75935;SDS011;64614;32.062;34.834;2023-03-01T06:05:16;20.98;;;9.63;;
75935;SDS011;64614;32.062;34.834;2023-03-01T06:07:42;15.32;;;9.30;;
75935;SDS011;64614;32.062;34.834;2023-03-01T06:10:09;17.83;;;9.90;;
75935;SDS011;64614;32.062;34.834;2023-03-01T06:12:36;16.15;;;9.98;;
75935;SDS011;64614;32.062;34.834;2023-03-01T06:17:29;17.75;;;9.80;;
75935;SDS011;64614;32.062;34.834;2023-03-01T06:19:55;17.77;;;10.27;;
75935;SDS011;64614;32.062;34.834;2023-03-01T06:24:55;19.15;;;9.52;;
75935;SDS011;64614;32.062;34.834;2023-03-01T06:29:56;21.83;;;10.35;;
75935;SDS011;64614;32.062;34.834;2023-03-01T06:32:22;20.52;;;9.57;;
75935;SDS011;64614;32.062;34.834;2023-03-01T06:34:50;20.92;;;9.85;;
75935;SDS011;64614;32.062;34.834;2023-03-01T06:39:48;18.35;;;9.43;;
75935;SDS011;64614;32.062;34.834;2023-03-01T06:42:16;14.65;;;9.30;;
75935;SDS011;64614;32.062;34.834;2023-03-01T06:44:42;21.35;;;9.40;;
75935;SDS011;64614;32.062;34.834;2023-03-01T06:52:14;17.67;;;9.43;;
75935;SDS011;64614;32.062;34.834;2023-03-01T07:05:13;16.15;;;8.82;;
75935;SDS011;64614;32.062;34.834;2023-03-01T07:07:39;14.38;;;8.13;;
75935;SDS011;64614;32.062;34.834;2023-03-01T07:10:05;14.63;;;8.90;;
75935;SDS011;64614;32.062;34.834;2023-03-01T07:12:31;17.85;;;9.05;;
75935;SDS011;64614;32.062;34.834;2023-03-01T07:15:00;13.48;;;8.35;;
75935;SDS011;64614;32.062;34.834;2023-03-01T07:17:27;14.25;;;8.68;;
75935;SDS011;64614;32.062;34.834;2023-03-01T07:19:53;14.02;;;7.88;;
75935;SDS011;64614;32.062;34.834;2023-03-01T07:22:19;16.92;;;8.88;;
75935;SDS011;64614;32.062;34.834;2023-03-01T07:24:46;14.88;;;8.50;;
75935;SDS011;64614;32.062;34.834;2023-03-01T07:27:12;15.38;;;8.70;;
75935;SDS011;64614;32.062;34.834;2023-03-01T07:29:38;13.82;;;8.60;;
75935;SDS011;64614;32.062;34.834;2023-03-01T07:32:04;14.82;;;8.45;;
75935;SDS011;64614;32.062;34.834;2023-03-01T07:34:32;16.48;;;8.73;;
75935;SDS011;64614;32.062;34.834;2023-03-01T07:36:58;15.55;;;8.30;;
75935;SDS011;64614;32.062;34.834;2023-03-01T07:39:24;13.07;;;8.50;;
75935;SDS011;64614;32.062;34.834;2023-03-01T07:44:27;13.35;;;8.55;;
75935;SDS011;64614;32.062;34.834;2023-03-01T07:46:53;14.02;;;8.57;;
75935;SDS011;64614;32.062;34.834;2023-03-01T07:51:49;13.68;;;8.25;;
75935;SDS011;64614;32.062;34.834;2023-03-01T07:54:15;13.68;;;8.02;;
75935;SDS011;64614;32.062;34.834;2023-03-01T07:56:40;14.10;;;7.32;;
75935;SDS011;64614;32.062;34.834;2023-03-01T07:59:06;13.80;;;8.10;;
75935;SDS011;64614;32.062;34.834;2023-03-01T08:01:31;14.40;;;7.38;;
75935;SDS011;64614;32.062;34.834;2023-03-01T08:03:59;12.40;;;7.82;;
75935;SDS011;64614;32.062;34.834;2023-03-01T08:06:25;12.98;;;7.68;;
75935;SDS011;64614;32.062;34.834;2023-03-01T08:11:26;14.98;;;8.18;;
75935;SDS011;64614;32.062;34.834;2023-03-01T08:13:53;15.02;;;8.32;;
75935;SDS011;64614;32.062;34.834;2023-03-01T08:21:29;11.68;;;7.68;;
75935;SDS011;64614;32.062;34.834;2023-03-01T08:23:55;11.93;;;7.45;;
75935;SDS011;64614;32.062;34.834;2023-03-01T08:34:53;14.50;;;7.80;;
75935;SDS011;64614;32.062;34.834;2023-03-01T08:39:54;11.05;;;7.13;;
75935;SDS011;64614;32.062;34.834;2023-03-01T08:42:21;13.23;;;7.90;;
75935;SDS011;64614;32.062;34.834;2023-03-01T08:44:48;13.13;;;7.88;;
75935;SDS011;64614;32.062;34.834;2023-03-01T08:47:14;13.60;;;8.00;;
75935;SDS011;64614;32.062;34.834;2023-03-01T08:49:39;13.20;;;7.03;;
75935;SDS011;64614;32.062;34.834;2023-03-01T08:52:05;12.10;;;8.02;;
75935;SDS011;64614;32.062;34.834;2023-03-01T08:54:31;12.27;;;7.28;;
75935;SDS011;64614;32.062;34.834;2023-03-01T08:56:57;13.65;;;7.32;;
75935;SDS011;64614;32.062;34.834;2023-03-01T09:01:59;10.95;;;7.72;;
75935;SDS011;64614;32.062;34.834;2023-03-01T09:04:24;10.77;;;6.88;;
75935;SDS011;64614;32.062;34.834;2023-03-01T09:09:16;10.63;;;6.80;;
75935;SDS011;64614;32.062;34.834;2023-03-01T09:11:45;10.35;;;6.85;;
75935;SDS011;64614;32.062;34.834;2023-03-01T09:14:11;12.18;;;6.88;;
75935;SDS011;64614;32.062;34.834;2023-03-01T09:16:38;13.05;;;6.97;;
75935;SDS011;64614;32.062;34.834;2023-03-01T09:19:04;11.20;;;6.93;;
75935;SDS011;64614;32.062;34.834;2023-03-01T09:21:30;12.45;;;7.80;;
75935;SDS011;64614;32.062;34.834;2023-03-01T09:23:56;10.23;;;6.65;;
75935;SDS011;64614;32.062;34.834;2023-03-01T09:26:23;13.65;;;7.55;;
75935;SDS011;64614;32.062;34.834;2023-03-01T09:28:52;12.68;;;7.22;;
75935;SDS011;64614;32.062;34.834;2023-03-01T09:31:19;10.50;;;6.65;;
75935;SDS011;64614;32.062;34.834;2023-03-01T09:33:47;13.00;;;7.07;;
75935;SDS011;64614;32.062;34.834;2023-03-01T09:36:16;10.48;;;6.95;;
75935;SDS011;64614;32.062;34.834;2023-03-01T09:38:43;11.98;;;7.13;;
75935;SDS011;64614;32.062;34.834;2023-03-01T09:41:11;10.20;;;6.90;;
75935;SDS011;64614;32.062;34.834;2023-03-01T09:44:05;10.73;;;6.53;;
75935;SDS011;64614;32.062;34.834;2023-03-01T09:46:36;10.15;;;6.20;;
75935;SDS011;64614;32.062;34.834;2023-03-01T09:49:27;10.77;;;6.60;;
75935;SDS011;64614;32.062;34.834;2023-03-01T09:54:54;11.82;;;6.43;;
75935;SDS011;64614;32.062;34.834;2023-03-01T09:57:33;9.63;;;6.38;;
75935;SDS011;64614;32.062;34.834;2023-03-01T10:00:20;11.15;;;6.88;;
75935;SDS011;64614;32.062;34.834;2023-03-01T10:02:57;10.45;;;6.47;;
75935;SDS011;64614;32.062;34.834;2023-03-01T10:11:05;9.98;;;6.47;;
75935;SDS011;64614;32.062;34.834;2023-03-01T10:16:34;10.45;;;6.72;;
75935;SDS011;64614;32.062;34.834;2023-03-01T10:19:11;10.75;;;6.43;;
75935;SDS011;64614;32.062;34.834;2023-03-01T10:21:43;12.73;;;6.50;;
75935;SDS011;64614;32.062;34.834;2023-03-01T10:24:15;10.13;;;6.40;;
75935;SDS011;64614;32.062;34.834;2023-03-01T10:26:56;10.25;;;6.55;;
75935;SDS011;64614;32.062;34.834;2023-03-01T10:29:26;10.15;;;6.10;;
75935;SDS011;64614;32.062;34.834;2023-03-01T10:31:57;9.85;;;6.00;;
75935;SDS011;64614;32.062;34.834;2023-03-01T10:34:30;10.70;;;6.07;;
75935;SDS011;64614;32.062;34.834;2023-03-01T10:37:16;9.40;;;6.05;;
75935;SDS011;64614;32.062;34.834;2023-03-01T10:39:56;10.43;;;6.20;;
75935;SDS011;64614;32.062;34.834;2023-03-01T10:42:26;11.07;;;6.38;;
75935;SDS011;64614;32.062;34.834;2023-03-01T10:44:57;9.40;;;5.93;;
75935;SDS011;64614;32.062;34.834;2023-03-01T10:47:39;9.68;;;6.07;;
75935;SDS011;64614;32.062;34.834;2023-03-01T10:50:25;9.85;;;6.40;;
75935;SDS011;64614;32.062;34.834;2023-03-01T10:53:01;10.05;;;6.35;;
75935;SDS011;64614;32.062;34.834;2023-03-01T10:55:56;12.10;;;7.03;;
75935;SDS011;64614;32.062;34.834;2023-03-01T10:58:37;12.32;;;5.95;;
75935;SDS011;64614;32.062;34.834;2023-03-01T11:01:05;11.02;;;6.40;;
75935;SDS011;64614;32.062;34.834;2023-03-01T11:04:09;11.43;;;6.70;;
75935;SDS011;64614;32.062;34.834;2023-03-01T11:06:39;9.43;;;6.22;;
75935;SDS011;64614;32.062;34.834;2023-03-01T11:09:18;9.77;;;5.88;;
75935;SDS011;64614;32.062;34.834;2023-03-01T11:11:54;11.35;;;5.80;;
75935;SDS011;64614;32.062;34.834;2023-03-01T11:14:26;9.85;;;5.88;;
75935;SDS011;64614;32.062;34.834;2023-03-01T11:17:02;9.63;;;6.75;;
75935;SDS011;64614;32.062;34.834;2023-03-01T11:19:37;9.52;;;6.13;;
75935;SDS011;64614;32.062;34.834;2023-03-01T11:22:07;9.63;;;6.40;;
75935;SDS011;64614;32.062;34.834;2023-03-01T11:24:40;9.27;;;6.38;;
75935;SDS011;64614;32.062;34.834;2023-03-01T11:27:16;11.85;;;7.15;;
75935;SDS011;64614;32.062;34.834;2023-03-01T12:08:29;11.45;;;7.35;;
75935;SDS011;64614;32.062;34.834;2023-03-01T12:35:01;12.48;;;7.60;;
75935;SDS011;64614;32.062;34.834;2023-03-01T12:37:45;14.60;;;8.10;;
75935;SDS011;64614;32.062;34.834;2023-03-01T12:48:21;15.07;;;7.30;;
75935;SDS011;64614;32.062;34.834;2023-03-01T12:51:06;13.20;;;7.53;;
75935;SDS011;64614;32.062;34.834;2023-03-01T12:53:39;14.05;;;7.50;;
75935;SDS011;64614;32.062;34.834;2023-03-01T12:56:10;12.48;;;7.00;;
75935;SDS011;64614;32.062;34.834;2023-03-01T12:58:59;12.02;;;6.97;;
75935;SDS011;64614;32.062;34.834;2023-03-01T13:01:41;12.50;;;7.25;;
75935;SDS011;64614;32.062;34.834;2023-03-01T13:10:21;10.95;;;7.88;;
75935;SDS011;64614;32.062;34.834;2023-03-01T13:13:02;12.25;;;7.50;;
75935;SDS011;64614;32.062;34.834;2023-03-01T13:15:38;14.68;;;8.20;;
75935;SDS011;64614;32.062;34.834;2023-03-01T13:18:27;11.45;;;7.15;;
75935;SDS011;64614;32.062;34.834;2023-03-01T13:20:53;12.85;;;7.88;;
75935;SDS011;64614;32.062;34.834;2023-03-01T13:26:07;12.15;;;7.70;;
75935;SDS011;64614;32.062;34.834;2023-03-01T13:31:02;12.18;;;8.20;;
75935;SDS011;64614;32.062;34.834;2023-03-01T13:35:56;14.43;;;8.38;;
75935;SDS011;64614;32.062;34.834;2023-03-01T13:39:25;13.05;;;8.70;;
75935;SDS011;64614;32.062;34.834;2023-03-01T13:44:25;11.60;;;7.53;;
75935;SDS011;64614;32.062;34.834;2023-03-01T13:49:25;12.55;;;7.80;;
75935;SDS011;64614;32.062;34.834;2023-03-01T13:51:53;11.80;;;8.48;;
75935;SDS011;64614;32.062;34.834;2023-03-01T13:54:30;13.43;;;8.13;;
75935;SDS011;64614;32.062;34.834;2023-03-01T13:56:57;12.63;;;7.65;;
75935;SDS011;64614;32.062;34.834;2023-03-01T13:59:25;12.88;;;7.75;;
75935;SDS011;64614;32.062;34.834;2023-03-01T14:01:56;12.68;;;7.55;;
75935;SDS011;64614;32.062;34.834;2023-03-01T14:06:52;13.05;;;8.18;;
75935;SDS011;64614;32.062;34.834;2023-03-01T14:09:44;13.77;;;8.60;;
75935;SDS011;64614;32.062;34.834;2023-03-01T14:15:01;13.43;;;7.88;;
75935;SDS011;64614;32.062;34.834;2023-03-01T14:22:46;12.98;;;7.93;;
75935;SDS011;64614;32.062;34.834;2023-03-01T14:25:33;14.30;;;8.90;;
75935;SDS011;64614;32.062;34.834;2023-03-01T14:28:12;11.18;;;7.68;;
75935;SDS011;64614;32.062;34.834;2023-03-01T14:30:56;12.82;;;7.68;;
75935;SDS011;64614;32.062;34.834;2023-03-01T14:33:24;14.77;;;7.72;;
75935;SDS011;64614;32.062;34.834;2023-03-01T14:38:29;15.35;;;7.93;;
75935;SDS011;64614;32.062;34.834;2023-03-01T14:41:01;12.95;;;7.75;;
75935;SDS011;64614;32.062;34.834;2023-03-01T14:43:33;15.18;;;8.18;;
75935;SDS011;64614;32.062;34.834;2023-03-01T14:46:00;14.23;;;8.65;;
75935;SDS011;64614;32.062;34.834;2023-03-01T14:48:26;11.82;;;7.95;;
75935;SDS011;64614;32.062;34.834;2023-03-01T14:50:53;13.40;;;7.85;;
75935;SDS011;64614;32.062;34.834;2023-03-01T14:55:46;15.25;;;7.72;;
75935;SDS011;64614;32.062;34.834;2023-03-01T14:58:18;13.38;;;8.05;;
75935;SDS011;64614;32.062;34.834;2023-03-01T15:00:56;12.98;;;8.10;;
75935;SDS011;64614;32.062;34.834;2023-03-01T15:06:06;11.25;;;7.35;;
75935;SDS011;64614;32.062;34.834;2023-03-01T15:08:33;15.68;;;8.25;;
75935;SDS011;64614;32.062;34.834;2023-03-01T15:11:05;13.10;;;7.85;;
75935;SDS011;64614;32.062;34.834;2023-03-01T15:13:50;13.40;;;8.02;;
75935;SDS011;64614;32.062;34.834;2023-03-01T15:16:18;13.43;;;8.40;;
75935;SDS011;64614;32.062;34.834;2023-03-01T15:21:22;14.77;;;8.43;;
75935;SDS011;64614;32.062;34.834;2023-03-01T15:23:50;14.23;;;7.60;;
75935;SDS011;64614;32.062;34.834;2023-03-01T15:26:23;14.63;;;8.13;;
75935;SDS011;64614;32.062;34.834;2023-03-01T15:29:10;12.80;;;7.88;;
75935;SDS011;64614;32.062;34.834;2023-03-01T15:31:53;15.20;;;8.73;;
75935;SDS011;64614;32.062;34.834;2023-03-01T15:34:30;12.30;;;7.97;;
75935;SDS011;64614;32.062;34.834;2023-03-01T15:37:05;13.77;;;8.05;;
75935;SDS011;64614;32.062;34.834;2023-03-01T15:39:56;13.88;;;8.50;;
75935;SDS011;64614;32.062;34.834;2023-03-01T15:47:49;14.98;;;8.82;;
75935;SDS011;64614;32.062;34.834;2023-03-01T15:52:53;15.98;;;8.77;;
75935;SDS011;64614;32.062;34.834;2023-03-01T15:55:21;15.88;;;8.45;;
75935;SDS011;64614;32.062;34.834;2023-03-01T15:57:48;18.08;;;9.70;;
75935;SDS011;64614;32.062;34.834;2023-03-01T16:00:27;13.50;;;8.00;;
75935;SDS011;64614;32.062;34.834;2023-03-01T16:02:53;15.73;;;8.95;;
75935;SDS011;64614;32.062;34.834;2023-03-01T16:05:26;16.25;;;9.13;;
75935;SDS011;64614;32.062;34.834;2023-03-01T16:07:55;14.70;;;8.55;;
75935;SDS011;64614;32.062;34.834;2023-03-01T16:10:22;12.50;;;8.30;;
75935;SDS011;64614;32.062;34.834;2023-03-01T16:12:49;12.93;;;8.50;;
75935;SDS011;64614;32.062;34.834;2023-03-01T16:15:24;13.52;;;8.32;;
75935;SDS011;64614;32.062;34.834;2023-03-01T16:18:01;17.05;;;8.75;;
75935;SDS011;64614;32.062;34.834;2023-03-01T16:20:28;16.23;;;8.48;;
75935;SDS011;64614;32.062;34.834;2023-03-01T16:22:55;17.17;;;8.98;;
75935;SDS011;64614;32.062;34.834;2023-03-01T16:25:25;15.35;;;8.23;;
75935;SDS011;64614;32.062;34.834;2023-03-01T16:27:56;12.77;;;8.02;;
75935;SDS011;64614;32.062;34.834;2023-03-01T16:30:24;15.05;;;8.32;;
75935;SDS011;64614;32.062;34.834;2023-03-01T16:32:51;16.33;;;8.50;;
75935;SDS011;64614;32.062;34.834;2023-03-01T16:35:18;15.32;;;8.15;;
75935;SDS011;64614;32.062;34.834;2023-03-01T16:37:45;12.98;;;7.93;;
75935;SDS011;64614;32.062;34.834;2023-03-01T16:40:19;11.18;;;7.70;;
75935;SDS011;64614;32.062;34.834;2023-03-01T17:05:06;16.48;;;8.13;;
75935;SDS011;64614;32.062;34.834;2023-03-01T17:30:49;12.50;;;7.32;;
75935;SDS011;64614;32.062;34.834;2023-03-01T17:33:15;13.60;;;7.60;;
75935;SDS011;64614;32.062;34.834;2023-03-01T17:35:43;12.98;;;7.07;;
75935;SDS011;64614;32.062;34.834;2023-03-01T17:38:11;14.55;;;7.43;;
75935;SDS011;64614;32.062;34.834;2023-03-01T17:43:08;14.68;;;7.10;;
75935;SDS011;64614;32.062;34.834;2023-03-01T17:50:49;12.68;;;6.90;;
75935;SDS011;64614;32.062;34.834;2023-03-01T17:53:18;12.68;;;7.13;;
75935;SDS011;64614;32.062;34.834;2023-03-01T17:55:44;14.00;;;6.78;;
75935;SDS011;64614;32.062;34.834;2023-03-01T17:58:11;14.45;;;7.03;;
75935;SDS011;64614;32.062;34.834;2023-03-01T18:00:38;13.23;;;6.82;;
75935;SDS011;64614;32.062;34.834;2023-03-01T18:03:05;12.95;;;6.95;;
75935;SDS011;64614;32.062;34.834;2023-03-01T18:05:31;12.63;;;7.53;;
75935;SDS011;64614;32.062;34.834;2023-03-01T18:13:09;14.15;;;8.20;;
75935;SDS011;64614;32.062;34.834;2023-03-01T18:15:35;12.15;;;7.20;;
75935;SDS011;64614;32.062;34.834;2023-03-01T18:18:01;14.35;;;7.90;;
75935;SDS011;64614;32.062;34.834;2023-03-01T18:20:27;12.18;;;7.15;;
75935;SDS011;64614;32.062;34.834;2023-03-01T18:22:54;12.90;;;7.03;;
75935;SDS011;64614;32.062;34.834;2023-03-01T18:25:20;12.48;;;7.72;;
75935;SDS011;64614;32.062;34.834;2023-03-01T18:27:46;12.95;;;7.25;;
75935;SDS011;64614;32.062;34.834;2023-03-01T18:30:12;13.35;;;7.15;;
75935;SDS011;64614;32.062;34.834;2023-03-01T18:32:38;11.73;;;7.28;;
75935;SDS011;64614;32.062;34.834;2023-03-01T18:35:05;12.02;;;7.82;;
75935;SDS011;64614;32.062;34.834;2023-03-01T18:37:32;11.38;;;6.90;;
75935;SDS011;64614;32.062;34.834;2023-03-01T18:39:58;12.25;;;8.02;;
75935;SDS011;64614;32.062;34.834;2023-03-01T18:42:23;12.73;;;7.40;;
75935;SDS011;64614;32.062;34.834;2023-03-01T18:44:50;13.32;;;7.47;;
75935;SDS011;64614;32.062;34.834;2023-03-01T18:49:43;13.00;;;7.97;;
75935;SDS011;64614;32.062;34.834;2023-03-01T18:52:10;11.18;;;7.47;;
75935;SDS011;64614;32.062;34.834;2023-03-01T18:54:36;15.50;;;7.70;;
75935;SDS011;64614;32.062;34.834;2023-03-01T18:57:01;14.70;;;8.20;;
75935;SDS011;64614;32.062;34.834;2023-03-01T18:59:27;14.85;;;8.38;;
75935;SDS011;64614;32.062;34.834;2023-03-01T19:01:54;14.05;;;8.07;;
75935;SDS011;64614;32.062;34.834;2023-03-01T19:04:21;14.30;;;8.35;;
75935;SDS011;64614;32.062;34.834;2023-03-01T19:06:47;14.75;;;8.13;;
75935;SDS011;64614;32.062;34.834;2023-03-01T19:09:13;14.07;;;8.13;;
75935;SDS011;64614;32.062;34.834;2023-03-01T19:11:39;14.05;;;7.60;;
75935;SDS011;64614;32.062;34.834;2023-03-01T19:14:05;12.60;;;7.40;;
75935;SDS011;64614;32.062;34.834;2023-03-01T19:19:06;13.32;;;7.90;;
75935;SDS011;64614;32.062;34.834;2023-03-01T19:21:34;15.70;;;8.10;;
75935;SDS011;64614;32.062;34.834;2023-03-01T19:24:00;16.73;;;8.23;;
75935;SDS011;64614;32.062;34.834;2023-03-01T19:26:26;13.65;;;7.70;;
75935;SDS011;64614;32.062;34.834;2023-03-01T19:31:21;13.95;;;8.82;;
75935;SDS011;64614;32.062;34.834;2023-03-01T19:33:50;15.50;;;8.23;;
75935;SDS011;64614;32.062;34.834;2023-03-01T19:36:16;12.73;;;7.95;;
75935;SDS011;64614;32.062;34.834;2023-03-01T19:41:18;14.85;;;7.85;;
75935;SDS011;64614;32.062;34.834;2023-03-01T19:43:46;15.77;;;8.18;;
75935;SDS011;64614;32.062;34.834;2023-03-01T19:48:43;14.18;;;8.25;;
75935;SDS011;64614;32.062;34.834;2023-03-01T19:51:10;14.40;;;7.63;;
75935;SDS011;64614;32.062;34.834;2023-03-01T19:58:38;13.93;;;7.75;;
75935;SDS011;64614;32.062;34.834;2023-03-01T20:03:39;17.67;;;8.65;;
75935;SDS011;64614;32.062;34.834;2023-03-01T20:06:14;13.32;;;8.60;;
75935;SDS011;64614;32.062;34.834;2023-03-01T20:08:43;13.30;;;8.23;;
75935;SDS011;64614;32.062;34.834;2023-03-01T20:11:09;13.40;;;7.60;;
75935;SDS011;64614;32.062;34.834;2023-03-01T20:13:37;11.65;;;7.28;;